sensor_id;sensor_type;location;lat;lon;timestamp;pressure;altitude;pressure_sealevel;temperature;humidity
9423;BME280;65863;49.506;10.400;2023-08-30T00:01:20;97360.38;;;12.58;100.00
9423;BME280;65863;49.506;10.400;2023-08-30T00:04:04;97391.94;;;12.84;100.00
9423;BME280;65863;49.506;10.400;2023-08-30T00:06:49;97336.22;;;12.55;100.00
9423;BME280;65863;49.506;10.400;2023-08-30T00:09:32;97345.91;;;12.71;100.00
9423;BME280;65863;49.506;10.400;2023-08-30T00:12:16;97359.91;;;12.79;100.00
9423;BME280;65863;49.506;10.400;2023-08-30T00:15:00;97346.28;;;12.58;100.00
9423;BME280;65863;49.506;10.400;2023-08-30T00:17:44;97341.66;;;12.53;100.00
9423;BME280;65863;49.506;10.400;2023-08-30T00:20:29;97368.16;;;12.67;100.00
9423;BME280;65863;49.506;10.400;2023-08-30T00:23:14;97344.16;;;12.49;100.00
9423;BME280;65863;49.506;10.400;2023-08-30T00:25:57;97354.88;;;12.60;100.00
9423;BME280;65863;49.506;10.400;2023-08-30T00:28:41;97349.25;;;12.60;100.00
9423;BME280;65863;49.506;10.400;2023-08-30T00:31:25;97324.78;;;12.53;100.00
9423;BME280;65863;49.506;10.400;2023-08-30T00:34:09;97386.53;;;12.96;100.00
9423;BME280;65863;49.506;10.400;2023-08-30T00:36:54;97360.31;;;12.75;100.00
9423;BME280;65863;49.506;10.400;2023-08-30T00:39:38;97378.19;;;12.88;100.00
9423;BME280;65863;49.506;10.400;2023-08-30T00:42:22;97314.38;;;12.46;100.00
9423;BME280;65863;49.506;10.400;2023-08-30T00:45:07;97320.31;;;12.50;100.00
9423;BME280;65863;49.506;10.400;2023-08-30T00:47:51;97297.09;;;12.32;100.00
9423;BME280;65863;49.506;10.400;2023-08-30T00:50:35;97328.03;;;12.49;100.00
9423;BME280;65863;49.506;10.400;2023-08-30T00:53:19;97300.34;;;12.28;100.00
9423;BME280;65863;49.506;10.400;2023-08-30T00:56:03;97342.47;;;12.63;100.00
9423;BME280;65863;49.506;10.400;2023-08-30T00:58:47;97328.50;;;12.55;100.00
9423;BME280;65863;49.506;10.400;2023-08-30T01:01:33;97295.38;;;12.36;100.00
9423;BME280;65863;49.506;10.400;2023-08-30T01:04:17;97343.53;;;12.68;100.00
9423;BME280;65863;49.506;10.400;2023-08-30T01:07:03;97352.84;;;12.61;100.00
9423;BME280;65863;49.506;10.400;2023-08-30T01:09:46;97347.34;;;12.63;100.00
9423;BME280;65863;49.506;10.400;2023-08-30T01:12:38;97373.25;;;12.79;100.00
9423;BME280;65863;49.506;10.400;2023-08-30T01:15:25;97322.66;;;12.44;100.00
9423;BME280;65863;49.506;10.400;2023-08-30T01:18:11;97291.25;;;12.20;100.00
9423;BME280;65863;49.506;10.400;2023-08-30T01:21:00;97368.75;;;12.75;100.00
9423;BME280;65863;49.506;10.400;2023-08-30T01:23:56;97340.19;;;12.52;100.00
9423;BME280;65863;49.506;10.400;2023-08-30T01:26:48;97346.75;;;12.64;100.00
9423;BME280;65863;49.506;10.400;2023-08-30T01:29:37;97324.44;;;12.49;100.00
9423;BME280;65863;49.506;10.400;2023-08-30T01:32:22;97365.00;;;12.63;100.00
9423;BME280;65863;49.506;10.400;2023-08-30T01:35:10;97303.09;;;12.18;100.00
9423;BME280;65863;49.506;10.400;2023-08-30T01:37:54;97350.28;;;12.55;100.00
9423;BME280;65863;49.506;10.400;2023-08-30T01:40:41;97372.59;;;12.70;100.00
9423;BME280;65863;49.506;10.400;2023-08-30T01:43:29;97360.38;;;12.58;100.00
9423;BME280;65863;49.506;10.400;2023-08-30T01:46:14;97379.94;;;12.56;100.00
9423;BME280;65863;49.506;10.400;2023-08-30T01:49:01;97377.41;;;12.60;100.00
9423;BME280;65863;49.506;10.400;2023-08-30T01:51:46;97354.59;;;12.38;100.00
9423;BME280;65863;49.506;10.400;2023-08-30T01:54:31;97323.03;;;12.13;100.00
9423;BME280;65863;49.506;10.400;2023-08-30T01:57:16;97349.81;;;12.31;100.00
9423;BME280;65863;49.506;10.400;2023-08-30T02:00:00;97353.81;;;12.28;100.00
9423;BME280;65863;49.506;10.400;2023-08-30T02:02:47;97366.63;;;12.39;100.00
9423;BME280;65863;49.506;10.400;2023-08-30T02:05:32;97374.66;;;12.25;100.00
9423;BME280;65863;49.506;10.400;2023-08-30T02:08:17;97321.22;;;11.73;100.00
9423;BME280;65863;49.506;10.400;2023-08-30T02:11:04;97304.06;;;11.61;100.00
9423;BME280;65863;49.506;10.400;2023-08-30T02:13:52;97371.69;;;12.05;100.00
9423;BME280;65863;49.506;10.400;2023-08-30T02:16:38;97314.97;;;11.57;100.00
9423;BME280;65863;49.506;10.400;2023-08-30T02:19:24;97329.22;;;11.59;100.00
9423;BME280;65863;49.506;10.400;2023-08-30T02:22:08;97341.53;;;11.63;100.00
9423;BME280;65863;49.506;10.400;2023-08-30T02:24:52;97322.19;;;11.50;100.00
9423;BME280;65863;49.506;10.400;2023-08-30T02:27:36;97362.03;;;11.74;100.00
9423;BME280;65863;49.506;10.400;2023-08-30T02:30:20;97375.31;;;11.81;100.00
9423;BME280;65863;49.506;10.400;2023-08-30T02:33:04;97348.56;;;11.54;100.00
9423;BME280;65863;49.506;10.400;2023-08-30T02:35:48;97339.97;;;11.52;100.00
9423;BME280;65863;49.506;10.400;2023-08-30T02:38:32;97323.81;;;11.35;100.00
9423;BME280;65863;49.506;10.400;2023-08-30T02:41:16;97305.25;;;11.15;100.00
9423;BME280;65863;49.506;10.400;2023-08-30T02:44:00;97332.66;;;11.07;100.00
9423;BME280;65863;49.506;10.400;2023-08-30T02:46:44;97316.63;;;10.99;100.00
9423;BME280;65863;49.506;10.400;2023-08-30T02:49:29;97323.41;;;10.89;100.00
9423;BME280;65863;49.506;10.400;2023-08-30T02:52:13;97367.13;;;11.07;100.00
9423;BME280;65863;49.506;10.400;2023-08-30T02:54:57;97301.31;;;10.67;100.00
9423;BME280;65863;49.506;10.400;2023-08-30T02:57:41;97326.22;;;10.63;100.00
9423;BME280;65863;49.506;10.400;2023-08-30T03:00:25;97324.66;;;10.70;100.00
9423;BME280;65863;49.506;10.400;2023-08-30T03:03:09;97346.53;;;10.79;100.00
9423;BME280;65863;49.506;10.400;2023-08-30T03:05:54;97340.78;;;10.70;100.00
9423;BME280;65863;49.506;10.400;2023-08-30T03:08:38;97375.47;;;10.90;100.00
9423;BME280;65863;49.506;10.400;2023-08-30T03:11:22;97328.84;;;10.61;100.00
9423;BME280;65863;49.506;10.400;2023-08-30T03:14:08;97346.03;;;10.65;100.00
9423;BME280;65863;49.506;10.400;2023-08-30T03:16:52;97334.47;;;10.61;100.00
9423;BME280;65863;49.506;10.400;2023-08-30T03:19:36;97337.44;;;10.63;100.00
9423;BME280;65863;49.506;10.400;2023-08-30T03:22:21;97353.16;;;10.66;100.00
9423;BME280;65863;49.506;10.400;2023-08-30T03:25:06;97340.38;;;10.73;100.00
9423;BME280;65863;49.506;10.400;2023-08-30T03:27:51;97341.38;;;10.93;100.00
9423;BME280;65863;49.506;10.400;2023-08-30T03:30:36;97337.22;;;10.94;100.00
9423;BME280;65863;49.506;10.400;2023-08-30T03:33:20;97347.22;;;11.13;100.00
9423;BME280;65863;49.506;10.400;2023-08-30T03:36:04;97365.06;;;11.33;100.00
9423;BME280;65863;49.506;10.400;2023-08-30T03:38:49;97337.00;;;11.25;100.00
9423;BME280;65863;49.506;10.400;2023-08-30T03:41:33;97359.78;;;11.37;100.00
9423;BME280;65863;49.506;10.400;2023-08-30T03:44:18;97345.78;;;11.29;100.00
9423;BME280;65863;49.506;10.400;2023-08-30T03:47:04;97334.03;;;11.23;100.00
9423;BME280;65863;49.506;10.400;2023-08-30T03:49:49;97351.16;;;11.35;100.00
9423;BME280;65863;49.506;10.400;2023-08-30T03:52:33;97336.19;;;11.32;100.00
9423;BME280;65863;49.506;10.400;2023-08-30T03:55:17;97334.38;;;11.27;100.00
9423;BME280;65863;49.506;10.400;2023-08-30T03:58:01;97334.72;;;11.31;100.00
9423;BME280;65863;49.506;10.400;2023-08-30T04:00:45;97357.56;;;11.53;100.00
9423;BME280;65863;49.506;10.400;2023-08-30T04:03:29;97327.59;;;11.30;100.00
9423;BME280;65863;49.506;10.400;2023-08-30T04:06:13;97332.06;;;11.33;100.00
9423;BME280;65863;49.506;10.400;2023-08-30T04:08:58;97325.78;;;11.25;100.00
9423;BME280;65863;49.506;10.400;2023-08-30T04:11:43;97312.72;;;11.20;100.00
9423;BME280;65863;49.506;10.400;2023-08-30T04:14:28;97339.69;;;11.41;100.00
9423;BME280;65863;49.506;10.400;2023-08-30T04:17:12;97327.59;;;11.30;100.00
9423;BME280;65863;49.506;10.400;2023-08-30T04:19:56;97343.50;;;11.35;100.00
9423;BME280;65863;49.506;10.400;2023-08-30T04:22:40;97339.75;;;11.33;100.00
9423;BME280;65863;49.506;10.400;2023-08-30T04:25:24;97337.28;;;11.37;100.00
9423;BME280;65863;49.506;10.400;2023-08-30T04:28:08;97326.44;;;11.33;100.00
9423;BME280;65863;49.506;10.400;2023-08-30T04:30:54;97363.88;;;11.61;100.00
9423;BME280;65863;49.506;10.400;2023-08-30T04:33:39;97341.53;;;11.46;100.00
9423;BME280;65863;49.506;10.400;2023-08-30T04:36:23;97361.06;;;11.61;100.00
9423;BME280;65863;49.506;10.400;2023-08-30T04:39:07;97352.44;;;11.59;100.00
9423;BME280;65863;49.506;10.400;2023-08-30T04:41:51;97339.56;;;11.56;100.00
9423;BME280;65863;49.506;10.400;2023-08-30T04:44:36;97336.75;;;11.56;100.00
9423;BME280;65863;49.506;10.400;2023-08-30T04:47:20;97338.56;;;11.61;100.00
9423;BME280;65863;49.506;10.400;2023-08-30T04:50:05;97330.63;;;11.50;100.00
9423;BME280;65863;49.506;10.400;2023-08-30T04:52:51;97383.22;;;11.92;100.00
9423;BME280;65863;49.506;10.400;2023-08-30T04:55:35;97350.81;;;11.74;100.00
9423;BME280;65863;49.506;10.400;2023-08-30T04:58:19;97358.69;;;11.93;100.00
9423;BME280;65863;49.506;10.400;2023-08-30T05:01:04;97337.91;;;11.70;100.00
9423;BME280;65863;49.506;10.400;2023-08-30T05:03:48;97352.16;;;11.73;100.00
9423;BME280;65863;49.506;10.400;2023-08-30T05:06:33;97313.25;;;11.44;100.00
9423;BME280;65863;49.506;10.400;2023-08-30T05:09:17;97338.38;;;11.59;100.00
9423;BME280;65863;49.506;10.400;2023-08-30T05:12:01;97351.47;;;11.82;100.00
9423;BME280;65863;49.506;10.400;2023-08-30T05:14:47;97359.25;;;11.91;100.00
9423;BME280;65863;49.506;10.400;2023-08-30T05:17:31;97356.81;;;11.95;100.00
9423;BME280;65863;49.506;10.400;2023-08-30T05:20:17;97344.97;;;11.97;100.00
9423;BME280;65863;49.506;10.400;2023-08-30T05:23:01;97337.75;;;12.03;100.00
9423;BME280;65863;49.506;10.400;2023-08-30T05:25:46;97368.38;;;12.17;100.00
9423;BME280;65863;49.506;10.400;2023-08-30T05:28:31;97338.50;;;12.21;100.00
9423;BME280;65863;49.506;10.400;2023-08-30T05:31:16;97356.94;;;12.32;100.00
9423;BME280;65863;49.506;10.400;2023-08-30T05:34:32;97360.56;;;12.43;100.00
9423;BME280;65863;49.506;10.400;2023-08-30T05:37:25;97361.69;;;12.57;100.00
9423;BME280;65863;49.506;10.400;2023-08-30T05:40:15;97354.88;;;12.60;100.00
9423;BME280;65863;49.506;10.400;2023-08-30T05:43:01;97330.72;;;12.57;100.00
9423;BME280;65863;49.506;10.400;2023-08-30T05:45:45;97349.22;;;12.78;100.00
9423;BME280;65863;49.506;10.400;2023-08-30T05:48:29;97379.19;;;13.10;100.00
9423;BME280;65863;49.506;10.400;2023-08-30T05:51:13;97331.47;;;12.85;100.00
9423;BME280;65863;49.506;10.400;2023-08-30T05:53:58;97339.53;;;12.98;100.00
9423;BME280;65863;49.506;10.400;2023-08-30T05:56:41;97346.09;;;13.11;100.00
9423;BME280;65863;49.506;10.400;2023-08-30T05:59:26;97338.69;;;13.15;100.00
9423;BME280;65863;49.506;10.400;2023-08-30T06:02:09;97338.72;;;13.25;100.00
9423;BME280;65863;49.506;10.400;2023-08-30T06:04:54;97342.03;;;13.31;100.00
9423;BME280;65863;49.506;10.400;2023-08-30T06:07:38;97352.03;;;13.52;100.00
9423;BME280;65863;49.506;10.400;2023-08-30T06:10:22;97335.00;;;13.59;100.00
9423;BME280;65863;49.506;10.400;2023-08-30T06:13:07;97311.56;;;13.57;100.00
9423;BME280;65863;49.506;10.400;2023-08-30T06:15:51;97351.81;;;13.87;100.00
9423;BME280;65863;49.506;10.400;2023-08-30T06:18:35;97345.88;;;14.02;100.00
9423;BME280;65863;49.506;10.400;2023-08-30T06:21:21;97281.28;;;13.67;100.00
9423;BME280;65863;49.506;10.400;2023-08-30T06:24:05;97358.50;;;14.31;100.00
9423;BME280;65863;49.506;10.400;2023-08-30T06:26:49;97335.03;;;14.28;100.00
9423;BME280;65863;49.506;10.400;2023-08-30T06:29:32;97343.63;;;14.30;100.00
9423;BME280;65863;49.506;10.400;2023-08-30T06:32:17;97349.44;;;14.42;100.00
9423;BME280;65863;49.506;10.400;2023-08-30T06:35:01;97336.47;;;14.49;100.00
9423;BME280;65863;49.506;10.400;2023-08-30T06:37:45;97354.59;;;14.65;100.00
9423;BME280;65863;49.506;10.400;2023-08-30T06:40:29;97332.31;;;14.69;100.00
9423;BME280;65863;49.506;10.400;2023-08-30T06:43:13;97332.31;;;14.69;99.74
9423;BME280;65863;49.506;10.400;2023-08-30T06:45:58;97355.31;;;15.17;99.27
9423;BME280;65863;49.506;10.400;2023-08-30T06:48:43;97347.16;;;15.11;98.27
9423;BME280;65863;49.506;10.400;2023-08-30T06:51:27;97326.56;;;14.98;97.53
9423;BME280;65863;49.506;10.400;2023-08-30T06:54:11;97293.16;;;14.75;96.50
9423;BME280;65863;49.506;10.400;2023-08-30T06:56:59;97354.78;;;15.40;95.99
9423;BME280;65863;49.506;10.400;2023-08-30T06:59:43;97356.91;;;15.29;95.17
9423;BME280;65863;49.506;10.400;2023-08-30T07:02:27;97338.28;;;15.36;94.64
9423;BME280;65863;49.506;10.400;2023-08-30T07:05:12;97348.81;;;15.45;93.72
9423;BME280;65863;49.506;10.400;2023-08-30T07:07:57;97333.84;;;15.33;92.75
9423;BME280;65863;49.506;10.400;2023-08-30T07:10:41;97358.97;;;15.60;92.42
9423;BME280;65863;49.506;10.400;2023-08-30T07:13:25;97366.47;;;15.77;92.13
9423;BME280;65863;49.506;10.400;2023-08-30T07:16:10;97334.63;;;15.77;91.49
9423;BME280;65863;49.506;10.400;2023-08-30T07:18:54;97353.44;;;15.94;91.22
9423;BME280;65863;49.506;10.400;2023-08-30T07:21:38;97338.06;;;15.75;90.49
9423;BME280;65863;49.506;10.400;2023-08-30T07:24:22;97334.13;;;15.59;90.39
9423;BME280;65863;49.506;10.400;2023-08-30T07:27:07;97358.81;;;15.90;90.38
9423;BME280;65863;49.506;10.400;2023-08-30T07:29:52;97312.59;;;15.75;90.21
9423;BME280;65863;49.506;10.400;2023-08-30T07:32:36;97298.88;;;15.81;89.88
9423;BME280;65863;49.506;10.400;2023-08-30T07:35:21;97283.63;;;15.65;88.46
9423;BME280;65863;49.506;10.400;2023-08-30T07:38:05;97335.63;;;16.25;88.41
9423;BME280;65863;49.506;10.400;2023-08-30T07:40:49;97340.25;;;16.20;87.50
9423;BME280;65863;49.506;10.400;2023-08-30T07:43:33;97334.31;;;16.16;87.36
9423;BME280;65863;49.506;10.400;2023-08-30T07:46:17;97343.53;;;16.38;87.33
9423;BME280;65863;49.506;10.400;2023-08-30T07:49:01;97345.03;;;16.39;86.84
9423;BME280;65863;49.506;10.400;2023-08-30T07:51:46;97343.06;;;16.42;87.09
9423;BME280;65863;49.506;10.400;2023-08-30T07:54:30;97338.38;;;16.46;86.94
9423;BME280;65863;49.506;10.400;2023-08-30T07:57:15;97340.53;;;16.24;86.57
9423;BME280;65863;49.506;10.400;2023-08-30T07:59:59;97284.97;;;15.64;86.19
9423;BME280;65863;49.506;10.400;2023-08-30T08:02:43;97277.72;;;15.82;86.77
9423;BME280;65863;49.506;10.400;2023-08-30T08:05:27;97336.13;;;16.33;86.94
9423;BME280;65863;49.506;10.400;2023-08-30T08:08:11;97332.00;;;16.46;86.71
9423;BME280;65863;49.506;10.400;2023-08-30T08:10:56;97329.53;;;16.40;85.94
9423;BME280;65863;49.506;10.400;2023-08-30T08:13:39;97344.78;;;16.47;85.77
9423;BME280;65863;49.506;10.400;2023-08-30T08:16:23;97336.34;;;16.59;86.03
9423;BME280;65863;49.506;10.400;2023-08-30T08:19:07;97337.81;;;16.60;85.84
9423;BME280;65863;49.506;10.400;2023-08-30T08:21:51;97333.97;;;16.55;85.10
9423;BME280;65863;49.506;10.400;2023-08-30T08:24:37;97353.47;;;16.73;85.25
9423;BME280;65863;49.506;10.400;2023-08-30T08:27:21;97312.75;;;16.44;84.65
9423;BME280;65863;49.506;10.400;2023-08-30T08:30:05;97283.19;;;16.35;84.65
9423;BME280;65863;49.506;10.400;2023-08-30T08:32:50;97351.34;;;16.95;84.53
9423;BME280;65863;49.506;10.400;2023-08-30T08:35:34;97332.59;;;16.90;83.77
9423;BME280;65863;49.506;10.400;2023-08-30T08:38:17;97322.81;;;16.69;83.14
9423;BME280;65863;49.506;10.400;2023-08-30T08:41:04;97302.38;;;16.82;83.51
9423;BME280;65863;49.506;10.400;2023-08-30T08:43:49;97305.72;;;16.91;82.68
9423;BME280;65863;49.506;10.400;2023-08-30T08:46:37;97357.00;;;17.42;81.75
9423;BME280;65863;49.506;10.400;2023-08-30T08:49:22;97319.41;;;17.42;81.18
9423;BME280;65863;49.506;10.400;2023-08-30T08:52:06;97333.47;;;17.51;80.85
9423;BME280;65863;49.506;10.400;2023-08-30T08:54:51;97319.75;;;17.48;80.19
9423;BME280;65863;49.506;10.400;2023-08-30T08:57:36;97318.50;;;17.63;80.42
9423;BME280;65863;49.506;10.400;2023-08-30T09:00:21;97314.94;;;17.50;79.46
9423;BME280;65863;49.506;10.400;2023-08-30T09:03:05;97312.16;;;17.38;79.16
9423;BME280;65863;49.506;10.400;2023-08-30T09:05:49;97322.75;;;17.38;79.47
9423;BME280;65863;49.506;10.400;2023-08-30T09:08:34;97333.94;;;17.60;79.74
9423;BME280;65863;49.506;10.400;2023-08-30T09:11:19;97309.94;;;17.86;79.39
9423;BME280;65863;49.506;10.400;2023-08-30T09:14:03;97321.38;;;18.38;78.13
9423;BME280;65863;49.506;10.400;2023-08-30T09:17:00;97327.38;;;18.44;76.35
9423;BME280;65863;49.506;10.400;2023-08-30T09:19:45;97338.19;;;18.34;75.53
9423;BME280;65863;49.506;10.400;2023-08-30T09:22:44;97324.06;;;18.22;75.59
9423;BME280;65863;49.506;10.400;2023-08-30T09:25:28;97320.69;;;18.51;76.62
9423;BME280;65863;49.506;10.400;2023-08-30T09:28:13;97321.38;;;19.03;75.88
9423;BME280;65863;49.506;10.400;2023-08-30T09:30:58;97315.81;;;19.19;75.37
9423;BME280;65863;49.506;10.400;2023-08-30T09:33:46;97327.63;;;19.27;73.95
9423;BME280;65863;49.506;10.400;2023-08-30T09:36:35;97307.69;;;19.27;72.71
9423;BME280;65863;49.506;10.400;2023-08-30T09:39:19;97310.53;;;19.83;72.11
9423;BME280;65863;49.506;10.400;2023-08-30T09:42:04;97314.31;;;19.74;70.60
9423;BME280;65863;49.506;10.400;2023-08-30T09:44:48;97322.66;;;19.98;70.31
9423;BME280;65863;49.506;10.400;2023-08-30T09:47:32;97299.53;;;20.51;70.19
9423;BME280;65863;49.506;10.400;2023-08-30T09:50:20;97299.44;;;20.49;68.49
9423;BME280;65863;49.506;10.400;2023-08-30T09:53:08;97327.03;;;20.74;67.53
9423;BME280;65863;49.506;10.400;2023-08-30T09:55:56;97328.16;;;20.53;66.46
9423;BME280;65863;49.506;10.400;2023-08-30T09:58:42;97303.03;;;19.76;66.60
9423;BME280;65863;49.506;10.400;2023-08-30T10:01:27;97269.97;;;19.13;68.73
9423;BME280;65863;49.506;10.400;2023-08-30T10:04:11;97310.97;;;19.36;69.55
9423;BME280;65863;49.506;10.400;2023-08-30T10:06:56;97300.22;;;19.48;69.77
9423;BME280;65863;49.506;10.400;2023-08-30T10:09:41;97311.72;;;19.22;69.23
9423;BME280;65863;49.506;10.400;2023-08-30T10:12:26;97309.16;;;18.87;69.71
9423;BME280;65863;49.506;10.400;2023-08-30T10:15:11;97305.47;;;18.72;70.63
9423;BME280;65863;49.506;10.400;2023-08-30T10:17:57;97302.81;;;19.02;71.60
9423;BME280;65863;49.506;10.400;2023-08-30T10:20:42;97297.03;;;19.42;70.81
9423;BME280;65863;49.506;10.400;2023-08-30T10:23:26;97288.19;;;19.64;69.50
9423;BME280;65863;49.506;10.400;2023-08-30T10:26:12;97281.00;;;19.90;68.95
9423;BME280;65863;49.506;10.400;2023-08-30T10:28:57;97262.13;;;19.83;67.49
9423;BME280;65863;49.506;10.400;2023-08-30T10:31:43;97282.97;;;20.02;67.11
9423;BME280;65863;49.506;10.400;2023-08-30T10:34:32;97291.81;;;20.38;67.59
9423;BME280;65863;49.506;10.400;2023-08-30T10:37:27;97299.63;;;20.83;66.00
9423;BME280;65863;49.506;10.400;2023-08-30T10:40:11;97278.41;;;20.56;66.11
9423;BME280;65863;49.506;10.400;2023-08-30T10:43:02;97276.56;;;20.47;65.16
9423;BME280;65863;49.506;10.400;2023-08-30T10:45:58;97285.34;;;20.83;64.58
9423;BME280;65863;49.506;10.400;2023-08-30T10:48:43;97227.63;;;20.37;63.77
9423;BME280;65863;49.506;10.400;2023-08-30T10:51:38;97264.16;;;20.10;64.19
9423;BME280;65863;49.506;10.400;2023-08-30T10:54:22;97288.16;;;20.21;65.04
9423;BME280;65863;49.506;10.400;2023-08-30T10:57:15;97263.72;;;20.16;65.07
9423;BME280;65863;49.506;10.400;2023-08-30T11:00:07;97270.19;;;20.03;64.11
9423;BME280;65863;49.506;10.400;2023-08-30T11:02:52;97255.53;;;19.51;64.50
9423;BME280;65863;49.506;10.400;2023-08-30T11:05:40;97272.84;;;19.41;64.80
9423;BME280;65863;49.506;10.400;2023-08-30T11:08:25;97226.28;;;18.92;66.70
9423;BME280;65863;49.506;10.400;2023-08-30T11:11:10;97260.97;;;18.77;67.78
9423;BME280;65863;49.506;10.400;2023-08-30T11:14:03;97270.38;;;18.40;71.14
9423;BME280;65863;49.506;10.400;2023-08-30T11:16:48;97258.19;;;18.00;72.75
9423;BME280;65863;49.506;10.400;2023-08-30T11:19:32;97256.13;;;17.88;73.87
9423;BME280;65863;49.506;10.400;2023-08-30T11:22:16;97267.13;;;17.94;74.37
9423;BME280;65863;49.506;10.400;2023-08-30T11:25:01;97178.69;;;17.48;74.24
9423;BME280;65863;49.506;10.400;2023-08-30T11:27:45;97274.22;;;18.58;73.80
9423;BME280;65863;49.506;10.400;2023-08-30T11:30:29;97234.19;;;18.54;72.15
9423;BME280;65863;49.506;10.400;2023-08-30T11:33:16;97240.47;;;19.06;69.99
9423;BME280;65863;49.506;10.400;2023-08-30T11:36:01;97242.59;;;19.20;69.30
9423;BME280;65863;49.506;10.400;2023-08-30T11:38:45;97235.94;;;19.29;68.29
9423;BME280;65863;49.506;10.400;2023-08-30T11:41:31;97264.28;;;19.99;68.21
9423;BME280;65863;49.506;10.400;2023-08-30T11:44:15;97241.91;;;20.53;66.70
9423;BME280;65863;49.506;10.400;2023-08-30T11:47:00;97227.28;;;20.60;64.25
9423;BME280;65863;49.506;10.400;2023-08-30T11:49:45;97226.38;;;21.04;63.54
9423;BME280;65863;49.506;10.400;2023-08-30T11:52:30;97241.59;;;21.26;61.66
9423;BME280;65863;49.506;10.400;2023-08-30T11:55:14;97200.53;;;20.84;60.30
9423;BME280;65863;49.506;10.400;2023-08-30T11:57:59;97254.78;;;21.33;59.12
9423;BME280;65863;49.506;10.400;2023-08-30T12:00:44;97207.34;;;20.92;58.88
9423;BME280;65863;49.506;10.400;2023-08-30T12:03:28;97239.78;;;21.17;59.37
9423;BME280;65863;49.506;10.400;2023-08-30T12:06:12;97241.00;;;21.46;58.83
9423;BME280;65863;49.506;10.400;2023-08-30T12:08:59;97255.44;;;21.00;58.02
9423;BME280;65863;49.506;10.400;2023-08-30T12:11:43;97228.69;;;20.91;58.47
9423;BME280;65863;49.506;10.400;2023-08-30T12:14:35;97213.50;;;20.39;58.80
9423;BME280;65863;49.506;10.400;2023-08-30T12:17:20;97226.69;;;20.16;59.21
9423;BME280;65863;49.506;10.400;2023-08-30T12:20:04;97212.53;;;20.18;59.43
9423;BME280;65863;49.506;10.400;2023-08-30T12:22:48;97218.72;;;20.44;57.66
9423;BME280;65863;49.506;10.400;2023-08-30T12:25:34;97226.41;;;20.72;58.41
9423;BME280;65863;49.506;10.400;2023-08-30T12:28:18;97226.56;;;20.92;57.86
9423;BME280;65863;49.506;10.400;2023-08-30T12:31:03;97212.88;;;20.88;56.59
9423;BME280;65863;49.506;10.400;2023-08-30T12:33:50;97219.41;;;21.25;55.93
9423;BME280;65863;49.506;10.400;2023-08-30T12:36:34;97173.56;;;21.03;55.83
9423;BME280;65863;49.506;10.400;2023-08-30T12:39:18;97204.22;;;20.86;55.81
9423;BME280;65863;49.506;10.400;2023-08-30T12:42:02;97228.13;;;21.45;56.24
9423;BME280;65863;49.506;10.400;2023-08-30T12:44:47;97210.50;;;21.32;55.57
9423;BME280;65863;49.506;10.400;2023-08-30T12:47:31;97204.81;;;21.50;56.40
9423;BME280;65863;49.506;10.400;2023-08-30T12:50:15;97196.53;;;21.57;56.75
9423;BME280;65863;49.506;10.400;2023-08-30T12:52:59;97203.81;;;21.44;55.55
9423;BME280;65863;49.506;10.400;2023-08-30T12:55:43;97192.06;;;21.36;55.90
9423;BME280;65863;49.506;10.400;2023-08-30T12:58:27;97185.81;;;21.23;55.45
9423;BME280;65863;49.506;10.400;2023-08-30T13:01:11;97197.25;;;21.23;54.77
9423;BME280;65863;49.506;10.400;2023-08-30T13:03:55;97212.50;;;20.96;56.11
9423;BME280;65863;49.506;10.400;2023-08-30T13:06:39;97194.44;;;21.07;56.95
9423;BME280;65863;49.506;10.400;2023-08-30T13:09:23;97198.00;;;21.08;56.83
9423;BME280;65863;49.506;10.400;2023-08-30T13:12:08;97216.44;;;21.39;55.82
9423;BME280;65863;49.506;10.400;2023-08-30T13:14:52;97194.91;;;22.06;56.22
9423;BME280;65863;49.506;10.400;2023-08-30T13:17:36;97174.66;;;21.81;54.54
9423;BME280;65863;49.506;10.400;2023-08-30T13:20:20;97204.94;;;22.07;54.28
9423;BME280;65863;49.506;10.400;2023-08-30T13:23:04;97176.81;;;21.47;53.34
9423;BME280;65863;49.506;10.400;2023-08-30T13:25:48;97187.47;;;21.28;53.92
9423;BME280;65863;49.506;10.400;2023-08-30T13:28:32;97198.00;;;21.42;54.61
9423;BME280;65863;49.506;10.400;2023-08-30T13:31:16;97180.13;;;21.23;54.49
9423;BME280;65863;49.506;10.400;2023-08-30T13:34:00;97165.06;;;21.05;54.35
9423;BME280;65863;49.506;10.400;2023-08-30T13:36:44;97178.69;;;21.22;54.62
9423;BME280;65863;49.506;10.400;2023-08-30T13:39:28;97197.53;;;21.63;54.92
9423;BME280;65863;49.506;10.400;2023-08-30T13:42:12;97195.16;;;21.76;54.75
9423;BME280;65863;49.506;10.400;2023-08-30T13:44:56;97191.47;;;21.55;54.92
9423;BME280;65863;49.506;10.400;2023-08-30T13:47:40;97168.81;;;21.59;55.37
9423;BME280;65863;49.506;10.400;2023-08-30T13:50:24;97193.94;;;21.81;55.29
9423;BME280;65863;49.506;10.400;2023-08-30T13:53:13;97170.72;;;21.03;54.90
9423;BME280;65863;49.506;10.400;2023-08-30T13:55:57;97171.84;;;20.95;56.29
9423;BME280;65863;49.506;10.400;2023-08-30T13:58:41;97196.97;;;20.67;56.18
9423;BME280;65863;49.506;10.400;2023-08-30T14:01:25;97180.94;;;20.60;56.58
9423;BME280;65863;49.506;10.400;2023-08-30T14:04:10;97193.47;;;20.69;57.03
9423;BME280;65863;49.506;10.400;2023-08-30T14:06:54;97148.59;;;20.37;56.18
9423;BME280;65863;49.506;10.400;2023-08-30T14:09:38;97161.63;;;20.90;55.92
9423;BME280;65863;49.506;10.400;2023-08-30T14:12:22;97186.75;;;21.28;55.31
9423;BME280;65863;49.506;10.400;2023-08-30T14:15:06;97143.13;;;21.25;54.74
9423;BME280;65863;49.506;10.400;2023-08-30T14:17:51;97171.88;;;21.13;54.49
9423;BME280;65863;49.506;10.400;2023-08-30T14:20:34;97181.84;;;21.30;55.55
9423;BME280;65863;49.506;10.400;2023-08-30T14:23:18;97195.94;;;21.60;55.07
9423;BME280;65863;49.506;10.400;2023-08-30T14:26:04;97182.13;;;21.37;55.05
9423;BME280;65863;49.506;10.400;2023-08-30T14:28:56;97207.28;;;21.58;55.29